createdAt,value
2019-05-02T00:00:12.605Z,13.43
2019-05-02T00:02:41.935Z,13.50
2019-05-02T00:05:12.058Z,13.40
2019-05-02T00:07:42.888Z,12.90
2019-05-02T00:10:15.087Z,12.00
2019-05-02T00:12:44.886Z,10.70
2019-05-02T00:15:15.404Z,11.10
2019-05-02T00:17:44.501Z,11.53
2019-05-02T00:20:14.950Z,11.17
2019-05-02T00:22:48.128Z,11.30
2019-05-02T00:25:15.948Z,10.47
2019-05-02T00:27:45.943Z,10.67
2019-05-02T00:30:15.969Z,10.97
2019-05-02T00:32:45.066Z,10.20
2019-05-02T00:35:14.620Z,10.57
2019-05-02T00:37:43.942Z,11.40
2019-05-02T00:40:13.039Z,10.80
2019-05-02T00:42:42.095Z,11.53
2019-05-02T00:45:14.109Z,11.60
2019-05-02T00:47:49.801Z,10.33
2019-05-02T00:50:19.129Z,10.93
2019-05-02T00:52:48.494Z,12.47
2019-05-02T00:55:17.565Z,11.43
2019-05-02T00:57:51.004Z,11.37
2019-05-02T01:00:18.724Z,11.30
2019-05-02T01:02:53.819Z,11.53
2019-05-02T01:05:22.881Z,11.80
2019-05-02T01:07:55.922Z,13.00
2019-05-02T01:10:22.737Z,13.20
2019-05-02T01:12:52.083Z,12.23
2019-05-02T01:15:21.139Z,13.07
2019-05-02T01:17:50.238Z,14.00
2019-05-02T01:20:22.279Z,12.63
2019-05-02T01:22:52.307Z,14.30
2019-05-02T01:25:21.331Z,12.80
2019-05-02T01:28:21.780Z,14.53
2019-05-02T01:31:20.242Z,14.07
2019-05-02T01:34:23.460Z,14.90
2019-05-02T01:37:20.786Z,14.63
2019-05-02T01:39:45.332Z,18.20
2019-05-02T01:42:14.376Z,17.00
2019-05-02T01:44:43.477Z,19.10
2019-05-02T01:47:12.856Z,24.40
2019-05-02T01:49:41.918Z,20.30
2019-05-02T01:52:10.980Z,26.53
2019-05-02T01:54:40.758Z,31.40
2019-05-02T01:57:11.153Z,33.13
2019-05-02T01:59:40.326Z,31.87
2019-05-02T02:02:09.649Z,30.93
2019-05-02T02:04:38.709Z,34.40
2019-05-02T02:07:07.790Z,34.60
2019-05-02T02:09:38.922Z,35.70
2019-05-02T02:12:09.895Z,38.90
2019-05-02T02:14:38.731Z,39.47
2019-05-02T02:17:10.092Z,38.23
2019-05-02T02:19:46.997Z,40.10
2019-05-02T02:22:39.150Z,39.90
2019-05-02T02:25:32.246Z,39.87
2019-05-02T02:27:59.645Z,40.60
2019-05-02T02:30:29.006Z,41.77
2019-05-02T02:33:00.730Z,46.60
2019-05-02T02:35:29.409Z,46.87
2019-05-02T02:37:58.483Z,49.00
2019-05-02T02:40:33.355Z,48.50
2019-05-02T02:43:12.827Z,47.73
2019-05-02T02:46:00.655Z,49.07
2019-05-02T02:48:33.909Z,52.30
2019-05-02T02:51:02.629Z,53.57
2019-05-02T02:53:31.736Z,54.77
2019-05-02T02:56:03.927Z,57.23
2019-05-02T02:58:44.513Z,59.73
2019-05-02T03:01:04.384Z,59.07
2019-05-02T03:03:35.308Z,59.50
2019-05-02T03:06:08.056Z,61.17
2019-05-02T03:08:45.135Z,58.20
2019-05-02T03:11:08.109Z,63.00
2019-05-02T03:14:05.688Z,59.87
2019-05-02T03:16:27.883Z,58.67
2019-05-02T03:18:56.937Z,62.70
2019-05-02T03:21:26.053Z,55.33
2019-05-02T03:24:02.803Z,58.10
2019-05-02T03:26:26.425Z,60.80
2019-05-02T03:28:58.661Z,58.27
2019-05-02T03:31:30.203Z,57.47
2019-05-02T03:34:00.746Z,58.10
2019-05-02T03:36:35.786Z,55.60
2019-05-02T03:39:00.381Z,55.87
2019-05-02T03:41:29.419Z,56.17
2019-05-02T03:44:10.863Z,55.53
2019-05-02T03:46:29.672Z,58.30
2019-05-02T03:49:06.809Z,56.93
2019-05-02T03:51:30.343Z,60.40
2019-05-02T03:54:07.743Z,60.33
2019-05-02T03:56:30.460Z,112.37
2019-05-02T03:58:59.539Z,59.77
2019-05-02T04:01:34.540Z,57.97
2019-05-02T04:03:59.640Z,54.20
2019-05-02T04:06:28.708Z,56.97
2019-05-02T04:08:59.847Z,56.40
2019-05-02T04:11:37.845Z,56.97
2019-05-02T04:13:59.681Z,57.37
2019-05-02T04:16:29.895Z,60.60
2019-05-02T04:19:07.640Z,58.77
2019-05-02T04:21:36.923Z,57.97
2019-05-02T04:24:13.293Z,59.20
2019-05-02T04:26:52.073Z,60.13
2019-05-02T04:29:11.313Z,54.70
2019-05-02T04:31:40.410Z,58.77
2019-05-02T04:34:15.824Z,57.87
2019-05-02T04:36:40.625Z,60.77
2019-05-02T04:39:14.998Z,62.83
2019-05-02T04:41:42.374Z,62.27
2019-05-02T04:44:11.318Z,60.90
2019-05-02T04:46:40.656Z,58.80
2019-05-02T04:49:10.074Z,58.40
2019-05-02T04:51:39.136Z,59.47
2019-05-02T04:54:09.378Z,58.87
2019-05-02T04:56:48.255Z,56.63
2019-05-02T04:59:18.157Z,65.33
2019-05-02T05:01:49.091Z,61.17
2019-05-02T05:04:11.744Z,57.77
2019-05-02T05:06:46.663Z,60.47
2019-05-02T05:09:14.810Z,62.90
2019-05-02T05:11:42.731Z,60.97
2019-05-02T05:14:11.768Z,63.00
2019-05-02T05:16:45.552Z,58.63
2019-05-02T05:19:11.986Z,61.07
2019-05-02T05:21:41.128Z,61.80
2019-05-02T05:24:27.979Z,58.67
2019-05-02T05:27:00.171Z,52.87
2019-05-02T05:29:29.403Z,53.17
2019-05-02T05:32:05.455Z,57.73
2019-05-02T05:34:32.701Z,58.17
2019-05-02T05:37:03.604Z,60.30
2019-05-02T05:39:37.980Z,63.30
2019-05-02T05:42:10.391Z,66.93
2019-05-02T05:44:39.941Z,65.07
2019-05-02T05:47:12.204Z,64.73
2019-05-02T05:49:40.014Z,64.47
2019-05-02T05:52:09.249Z,68.87
2019-05-02T05:54:42.240Z,64.57
2019-05-02T05:57:17.434Z,66.83
2019-05-02T05:59:43.373Z,67.87
2019-05-02T06:02:14.854Z,67.70
2019-05-02T06:04:43.917Z,63.87
2019-05-02T06:07:13.826Z,60.70
2019-05-02T06:09:45.397Z,53.80
2019-05-02T06:12:15.858Z,64.60
2019-05-02T06:14:46.417Z,162.53
2019-05-02T06:17:16.020Z,69.47
2019-05-02T06:19:48.231Z,67.47
2019-05-02T06:22:23.911Z,70.77
2019-05-02T06:24:50.903Z,69.37
2019-05-02T06:27:20.880Z,67.67
2019-05-02T06:29:56.054Z,65.40
2019-05-02T06:32:23.225Z,67.93
2019-05-02T06:34:52.676Z,70.60
2019-05-02T06:37:21.803Z,68.97
2019-05-02T06:39:51.324Z,69.77
2019-05-02T06:42:20.379Z,68.27
2019-05-02T06:44:50.489Z,63.37
2019-05-02T06:47:22.638Z,67.30
2019-05-02T06:50:02.708Z,66.27
2019-05-02T06:52:47.266Z,65.13
2019-05-02T06:55:40.480Z,67.87
2019-05-02T06:58:10.762Z,65.60
2019-05-02T07:00:56.081Z,66.00
2019-05-02T07:03:12.655Z,65.50
2019-05-02T07:05:41.991Z,64.73
2019-05-02T07:08:13.556Z,66.50
2019-05-02T07:10:44.674Z,64.47
2019-05-02T07:13:15.041Z,66.93
2019-05-02T07:16:37.312Z,64.80
2019-05-02T07:18:52.775Z,61.70
2019-05-02T07:21:23.599Z,65.40
2019-05-02T07:23:53.595Z,65.63
2019-05-02T07:26:23.713Z,63.07
2019-05-02T07:28:52.794Z,64.73
2019-05-02T07:31:21.886Z,66.53
2019-05-02T07:33:51.263Z,69.53
2019-05-02T07:36:20.338Z,62.17
2019-05-02T07:38:49.407Z,67.63
2019-05-02T07:41:18.972Z,67.00
2019-05-02T07:43:52.166Z,66.30
2019-05-02T07:46:21.115Z,67.77
2019-05-02T07:48:54.685Z,68.13
2019-05-02T07:51:22.625Z,65.23
2019-05-02T07:53:51.816Z,70.23
2019-05-02T07:56:21.290Z,70.07
2019-05-02T07:58:50.425Z,68.97
2019-05-02T08:01:20.341Z,65.07
2019-05-02T08:03:50.813Z,65.10
2019-05-02T08:06:19.909Z,66.83
2019-05-02T08:08:49.001Z,65.07
2019-05-02T08:11:18.408Z,68.40
2019-05-02T08:13:49.479Z,66.13
2019-05-02T08:16:22.314Z,66.70
2019-05-02T08:18:49.626Z,70.07
2019-05-02T08:21:18.694Z,68.70
2019-05-02T08:23:47.782Z,68.80
2019-05-02T08:26:21.720Z,67.17
2019-05-02T08:28:55.612Z,68.67
2019-05-02T08:31:24.801Z,70.50
2019-05-02T08:33:53.877Z,71.03
2019-05-02T08:36:22.957Z,71.13
2019-05-02T08:38:53.560Z,72.10
2019-05-02T08:41:23.065Z,70.50
2019-05-02T08:43:52.145Z,68.10
2019-05-02T08:46:21.276Z,67.63
2019-05-02T08:48:50.809Z,69.90
2019-05-02T08:51:20.320Z,73.83
2019-05-02T08:53:52.174Z,76.83
2019-05-02T08:56:21.457Z,70.90
2019-05-02T08:58:51.249Z,73.97
2019-05-02T09:01:20.286Z,69.87
2019-05-02T09:03:55.148Z,70.20
2019-05-02T09:06:24.065Z,70.73
2019-05-02T09:08:53.322Z,71.80
2019-05-02T09:11:22.361Z,75.90
2019-05-02T09:13:52.646Z,65.00
2019-05-02T09:16:28.463Z,69.13
2019-05-02T09:18:54.221Z,65.10
2019-05-02T09:21:26.691Z,65.97
2019-05-02T09:23:54.527Z,65.50
2019-05-02T09:26:34.988Z,63.83
2019-05-02T09:28:56.287Z,66.90
2019-05-02T09:31:25.496Z,67.57
2019-05-02T09:33:55.675Z,65.87
2019-05-02T09:36:25.100Z,67.27
2019-05-02T09:38:57.595Z,65.17
2019-05-02T09:41:26.909Z,65.37
2019-05-02T09:43:56.072Z,65.20
2019-05-02T09:46:25.212Z,58.97
2019-05-02T09:48:57.088Z,60.70
2019-05-02T09:51:25.392Z,57.23
2019-05-02T09:53:57.227Z,54.90
2019-05-02T09:56:25.319Z,56.33
2019-05-02T09:59:02.286Z,50.90
2019-05-02T10:01:32.982Z,53.30
2019-05-02T10:04:05.625Z,51.10
2019-05-02T10:06:34.765Z,52.23
2019-05-02T10:09:05.475Z,58.30
2019-05-02T10:11:34.991Z,53.70
2019-05-02T10:14:04.805Z,55.13
2019-05-02T10:16:34.160Z,53.73
2019-05-02T10:19:09.576Z,53.90
2019-05-02T10:21:34.319Z,54.33
2019-05-02T10:24:05.273Z,51.27
2019-05-02T10:26:34.672Z,49.60
2019-05-02T10:29:03.842Z,51.23
2019-05-02T10:31:37.715Z,51.27
2019-05-02T10:34:13.002Z,51.80
2019-05-02T10:36:38.548Z,51.70
2019-05-02T10:39:08.533Z,51.30
2019-05-02T10:41:40.922Z,51.03
2019-05-02T10:44:10.380Z,52.53
2019-05-02T10:46:57.425Z,52.43
2019-05-02T10:49:52.722Z,51.07
2019-05-02T10:52:29.624Z,46.67
2019-05-02T10:54:53.141Z,49.40
2019-05-02T10:57:22.587Z,49.60
2019-05-02T10:59:52.543Z,48.50
2019-05-02T11:02:39.480Z,50.53
2019-05-02T11:05:16.819Z,48.27
2019-05-02T11:07:56.914Z,48.50
2019-05-02T11:10:25.847Z,46.20
2019-05-02T11:13:16.349Z,46.47
2019-05-02T11:16:07.799Z,44.03
2019-05-02T11:18:52.499Z,45.50
2019-05-02T11:21:23.356Z,44.93
2019-05-02T11:23:52.820Z,41.87
2019-05-02T11:26:25.043Z,43.80
2019-05-02T11:28:53.328Z,43.60
2019-05-02T11:31:22.459Z,44.43
2019-05-02T11:33:52.722Z,44.03
2019-05-02T11:36:22.560Z,44.73
2019-05-02T11:39:00.190Z,41.97
2019-05-02T11:41:22.598Z,41.37
2019-05-02T11:43:55.488Z,41.07
2019-05-02T11:46:23.145Z,49.77
2019-05-02T11:48:56.339Z,41.23
2019-05-02T11:51:23.342Z,37.67
2019-05-02T11:53:52.872Z,37.90
2019-05-02T11:56:22.390Z,37.77
2019-05-02T11:58:54.956Z,35.90
2019-05-02T12:01:35.807Z,39.47
2019-05-02T12:03:56.820Z,34.40
2019-05-02T12:06:27.472Z,35.70
2019-05-02T12:08:57.747Z,38.70
2019-05-02T12:11:26.943Z,37.57
2019-05-02T12:13:57.142Z,37.20
2019-05-02T12:16:26.282Z,37.87
2019-05-02T12:19:08.539Z,35.73
2019-05-02T12:21:27.660Z,33.43
2019-05-02T12:23:57.106Z,33.00
2019-05-02T12:26:26.513Z,35.40
2019-05-02T12:28:55.885Z,36.47
2019-05-02T12:31:27.902Z,34.70
2019-05-02T12:33:57.729Z,31.77
2019-05-02T12:36:26.927Z,29.93
2019-05-02T12:38:56.051Z,28.60
2019-05-02T12:41:26.454Z,32.57
2019-05-02T12:43:55.660Z,29.90
2019-05-02T12:46:24.897Z,26.80
2019-05-02T12:48:53.963Z,28.90
2019-05-02T12:51:23.201Z,26.97
2019-05-02T12:53:53.018Z,29.97
2019-05-02T12:56:22.944Z,28.83
2019-05-02T12:58:52.965Z,26.90
2019-05-02T13:01:22.604Z,27.10
2019-05-02T13:04:12.487Z,26.73
2019-05-02T13:06:42.305Z,25.00
2019-05-02T13:09:12.653Z,23.60
2019-05-02T13:12:14.044Z,20.73
2019-05-02T13:14:43.177Z,19.10
2019-05-02T13:17:12.621Z,21.00
2019-05-02T13:19:55.177Z,19.67
2019-05-02T13:22:26.072Z,20.63
2019-05-02T13:24:58.646Z,21.90
2019-05-02T13:27:32.218Z,20.77
2019-05-02T13:30:00.254Z,18.10
2019-05-02T13:32:53.704Z,17.30
2019-05-02T13:35:39.228Z,18.63
2019-05-02T13:38:09.135Z,21.70
2019-05-02T13:40:43.366Z,18.93
2019-05-02T13:43:12.968Z,17.90
2019-05-02T13:46:13.870Z,18.20
2019-05-02T13:48:43.048Z,18.50
2019-05-02T13:51:12.457Z,17.17
2019-05-02T13:53:59.102Z,17.63
2019-05-02T13:56:47.538Z,17.73
2019-05-02T13:59:17.258Z,19.53
2019-05-02T14:01:52.102Z,19.70
2019-05-02T14:04:19.492Z,20.20
2019-05-02T14:06:48.684Z,17.90
2019-05-02T14:09:44.071Z,18.37
2019-05-02T14:12:29.727Z,19.40
2019-05-02T14:15:00.263Z,18.50
2019-05-02T14:17:29.445Z,18.10
2019-05-02T14:22:29.859Z,17.90
2019-05-02T14:24:59.066Z,20.50
2019-05-02T14:27:32.726Z,18.77
2019-05-02T14:30:02.856Z,16.90
2019-05-02T14:32:32.883Z,27.60
2019-05-02T14:35:11.652Z,16.40
2019-05-02T14:37:42.122Z,16.60
2019-05-02T14:40:18.237Z,18.57
2019-05-02T14:42:47.368Z,16.83
2019-05-02T14:45:27.158Z,15.70
2019-05-02T14:47:49.713Z,16.03
2019-05-02T14:50:24.258Z,17.07
2019-05-02T14:52:51.685Z,16.13
2019-05-02T14:55:22.218Z,16.93
2019-05-02T14:57:52.615Z,15.03
2019-05-02T15:00:25.333Z,14.10
2019-05-02T15:02:54.435Z,14.13
2019-05-02T15:05:29.549Z,14.00
2019-05-02T15:07:56.929Z,17.10
2019-05-02T15:10:28.097Z,15.77
2019-05-02T15:12:59.518Z,15.50
2019-05-02T15:15:33.619Z,15.67
2019-05-02T15:17:59.365Z,15.93
2019-05-02T15:20:37.200Z,16.50
2019-05-02T15:22:59.581Z,15.10
2019-05-02T15:25:28.724Z,15.30
2019-05-02T15:28:00.054Z,17.00
2019-05-02T15:30:28.997Z,17.57
2019-05-02T15:33:09.131Z,14.67
2019-05-02T15:36:02.216Z,14.47
2019-05-02T15:38:32.340Z,14.23
2019-05-02T15:41:07.023Z,13.83
2019-05-02T15:43:33.128Z,13.60
2019-05-02T15:46:03.739Z,13.10
2019-05-02T15:48:37.871Z,13.07
2019-05-02T15:51:08.976Z,12.73
2019-05-02T15:54:03.077Z,13.37
2019-05-02T15:56:24.332Z,16.07
2019-05-02T15:58:53.241Z,20.40
2019-05-02T16:01:36.581Z,20.93
2019-05-02T16:04:07.315Z,21.37
2019-05-02T16:06:36.655Z,20.97
2019-05-02T16:09:07.759Z,20.80
2019-05-02T16:11:40.427Z,19.23
2019-05-02T16:14:10.582Z,21.73
2019-05-02T16:16:45.106Z,20.70
2019-05-02T16:19:24.836Z,20.33
2019-05-02T16:21:52.083Z,20.00
2019-05-02T16:24:24.907Z,19.13
2019-05-02T16:26:57.110Z,19.77
2019-05-02T16:29:41.877Z,19.83
2019-05-02T16:32:35.742Z,19.77
2019-05-02T16:35:12.184Z,17.60
2019-05-02T16:37:36.852Z,17.80
2019-05-02T16:40:08.071Z,20.00
2019-05-02T16:42:45.652Z,18.40
2019-05-02T16:45:18.191Z,19.63
2019-05-02T16:47:58.361Z,20.00
2019-05-02T16:50:20.460Z,21.07
2019-05-02T16:52:50.578Z,18.20
2019-05-02T16:55:25.110Z,20.10
2019-05-02T16:57:51.897Z,19.50
2019-05-02T17:00:25.652Z,17.77
2019-05-02T17:02:57.623Z,14.43
2019-05-02T17:05:27.097Z,13.40
2019-05-02T17:08:27.780Z,14.63
2019-05-02T17:11:03.597Z,13.70
2019-05-02T17:13:39.375Z,12.10
2019-05-02T17:16:13.249Z,13.90
2019-05-02T17:18:43.131Z,13.10
2019-05-02T17:21:16.080Z,14.10
2019-05-02T17:23:49.952Z,15.20
2019-05-02T17:26:18.563Z,14.80
2019-05-02T17:28:47.764Z,14.87
2019-05-02T17:31:20.496Z,14.40
2019-05-02T17:33:51.035Z,14.80
2019-05-02T17:36:21.530Z,15.63
2019-05-02T17:38:59.268Z,15.60
2019-05-02T17:41:28.979Z,14.70
2019-05-02T17:43:59.204Z,15.23
2019-05-02T17:46:34.262Z,15.20
2019-05-02T17:49:06.092Z,15.27
2019-05-02T17:52:05.437Z,16.17
2019-05-02T17:54:27.486Z,15.97
2019-05-02T17:56:59.199Z,16.73
2019-05-02T17:59:34.641Z,16.70
2019-05-02T18:02:01.834Z,18.20
2019-05-02T18:04:32.530Z,16.10
2019-05-02T18:07:04.206Z,17.57
2019-05-02T18:09:35.151Z,17.23
2019-05-02T18:12:14.454Z,18.23
2019-05-02T18:14:42.109Z,16.37
2019-05-02T18:17:12.745Z,17.63
2019-05-02T18:19:42.691Z,18.70
2019-05-02T18:22:23.267Z,17.80
2019-05-02T18:24:46.378Z,17.00
2019-05-02T18:27:14.879Z,17.67
2019-05-02T18:29:45.677Z,19.83
2019-05-02T18:32:17.638Z,21.77
2019-05-02T18:34:48.184Z,22.83
2019-05-02T18:37:17.528Z,23.60
2019-05-02T18:39:53.230Z,22.77
2019-05-02T18:42:21.979Z,22.57
2019-05-02T18:44:53.048Z,22.17
2019-05-02T18:47:24.808Z,23.47
2019-05-02T18:50:00.691Z,23.23
2019-05-02T18:52:35.586Z,26.70
2019-05-02T18:54:56.072Z,21.97
2019-05-02T18:57:26.100Z,22.80
2019-05-02T18:59:56.398Z,21.50
2019-05-02T19:02:32.734Z,21.50
2019-05-02T19:04:58.039Z,20.40
2019-05-02T19:07:35.191Z,21.27
2019-05-02T19:10:04.305Z,21.50
2019-05-02T19:12:32.894Z,20.67
2019-05-02T19:15:06.767Z,19.50
2019-05-02T19:17:38.496Z,19.07
2019-05-02T19:20:06.218Z,21.00
2019-05-02T19:22:48.124Z,20.87
2019-05-02T19:25:12.094Z,20.97
2019-05-02T19:28:06.545Z,23.60
2019-05-02T19:30:36.732Z,22.00
2019-05-02T19:33:08.012Z,24.00
2019-05-02T19:35:42.460Z,22.10
2019-05-02T19:38:08.648Z,22.20
2019-05-02T19:40:39.727Z,20.60
2019-05-02T19:43:11.934Z,20.43
2019-05-02T19:45:40.226Z,19.40
2019-05-02T19:48:13.789Z,19.50
2019-05-02T19:50:43.856Z,18.53
2019-05-02T19:53:18.005Z,18.60
2019-05-02T19:55:43.887Z,17.17
2019-05-02T19:58:13.278Z,18.97
2019-05-02T20:00:46.274Z,18.83
2019-05-02T20:03:21.574Z,17.67
2019-05-02T20:05:48.410Z,18.40
2019-05-02T20:08:21.386Z,18.50
2019-05-02T20:10:56.694Z,18.20
2019-05-02T20:13:28.221Z,17.80
2019-05-02T20:16:01.881Z,18.43
2019-05-02T20:18:28.594Z,18.80
2019-05-02T20:21:23.419Z,18.90
2019-05-02T20:23:46.088Z,19.80
2019-05-02T20:26:17.068Z,20.60
2019-05-02T20:28:46.396Z,21.23
2019-05-02T20:31:15.801Z,23.20
2019-05-02T20:33:44.930Z,23.93
2019-05-02T20:36:14.059Z,23.07
2019-05-02T20:38:43.483Z,22.63
2019-05-02T20:41:12.847Z,23.37
2019-05-02T20:43:44.419Z,23.93
2019-05-02T20:46:13.018Z,24.40
2019-05-02T20:48:42.182Z,22.77
2019-05-02T20:51:12.141Z,22.93
2019-05-02T20:53:42.204Z,24.27
2019-05-02T20:56:12.401Z,23.70
2019-05-02T20:58:41.947Z,26.97
2019-05-02T21:01:12.442Z,24.10
2019-05-02T21:03:42.761Z,26.07
2019-05-02T21:06:44.033Z,24.63
2019-05-02T21:09:35.035Z,24.90
2019-05-02T21:12:06.527Z,25.70
2019-05-02T21:14:35.988Z,24.07
2019-05-02T21:17:05.198Z,24.80
2019-05-02T21:19:34.395Z,24.90
2019-05-02T21:22:08.374Z,25.57
2019-05-02T21:24:37.589Z,27.20
2019-05-02T21:27:08.264Z,25.87
2019-05-02T21:29:38.330Z,26.10
2019-05-02T21:32:07.457Z,25.33
2019-05-02T21:34:36.581Z,26.33
2019-05-02T21:37:06.108Z,27.10
2019-05-02T21:39:35.218Z,27.07
2019-05-02T21:42:05.214Z,27.13
2019-05-02T21:44:34.724Z,26.70
2019-05-02T21:47:05.882Z,28.73
2019-05-02T21:50:12.366Z,26.93
2019-05-02T21:53:04.352Z,27.77
2019-05-02T21:55:51.990Z,26.20
2019-05-02T21:58:21.635Z,26.97
2019-05-02T22:01:02.159Z,26.70
2019-05-02T22:03:32.456Z,27.57
2019-05-02T22:06:03.209Z,27.70
2019-05-02T22:08:32.435Z,26.90
2019-05-02T22:11:01.693Z,25.87
2019-05-02T22:13:31.594Z,27.20
2019-05-02T22:16:02.332Z,27.37
2019-05-02T22:18:32.142Z,28.27
2019-05-02T22:21:01.870Z,23.30
2019-05-02T22:23:33.926Z,22.70
2019-05-02T22:26:03.358Z,20.90
2019-05-02T22:28:32.797Z,18.70
2019-05-02T22:31:03.204Z,20.10
2019-05-02T22:33:32.879Z,20.53
2019-05-02T22:36:03.630Z,18.77
2019-05-02T22:38:42.229Z,19.67
2019-05-02T22:41:12.562Z,20.17
2019-05-02T22:43:42.246Z,21.20
2019-05-02T22:46:14.126Z,20.00
2019-05-02T22:48:43.182Z,22.20
2019-05-02T22:51:12.556Z,22.90
2019-05-02T22:53:41.829Z,22.17
2019-05-02T22:56:11.828Z,22.80
2019-05-02T22:58:42.137Z,23.60
2019-05-02T23:01:11.316Z,22.53
2019-05-02T23:03:41.854Z,20.20
2019-05-02T23:06:12.523Z,21.20
2019-05-02T23:08:43.487Z,20.53
2019-05-02T23:11:13.037Z,15.00
2019-05-02T23:13:42.361Z,13.73
2019-05-02T23:16:11.759Z,12.03
2019-05-02T23:18:42.488Z,13.00
2019-05-02T23:21:12.701Z,13.07
2019-05-02T23:23:42.151Z,11.80
2019-05-02T23:26:31.767Z,11.70
2019-05-02T23:29:02.692Z,9.87
2019-05-02T23:31:31.835Z,10.37
2019-05-02T23:34:02.033Z,9.13
2019-05-02T23:36:32.724Z,9.40
2019-05-02T23:39:02.090Z,8.87
2019-05-02T23:41:32.857Z,9.20
2019-05-02T23:44:03.273Z,10.10
2019-05-02T23:46:32.306Z,9.50
2019-05-02T23:49:01.979Z,9.33
2019-05-02T23:51:32.063Z,9.00
2019-05-02T23:54:02.060Z,9.47
2019-05-02T23:56:32.469Z,9.13
2019-05-02T23:59:02.758Z,9.17
